createdAt,value
2023-05-07T00:05:20.820Z,98688.84
2023-05-07T00:10:44.784Z,98692.06
2023-05-07T00:16:09.816Z,98696.63
2023-05-07T00:21:37.796Z,98708.75
2023-05-07T00:27:02.807Z,98711.44
2023-05-07T00:32:27.808Z,98696.47
2023-05-07T00:37:55.765Z,98718.16
2023-05-07T00:43:20.820Z,98708.06
2023-05-07T00:48:45.770Z,98685.97
2023-05-07T00:54:14.860Z,98694.59
2023-05-07T00:59:47.819Z,98695.59
2023-05-07T01:05:13.821Z,98703.38
2023-05-07T01:10:41.815Z,98699.31
2023-05-07T01:16:00.783Z,98705.00
2023-05-07T01:21:27.883Z,98704.69
2023-05-07T01:26:55.798Z,98698.75
2023-05-07T01:32:25.842Z,98693.53
2023-05-07T01:37:50.802Z,98697.38
2023-05-07T01:43:19.810Z,98704.28
2023-05-07T01:48:44.840Z,98694.81
2023-05-07T01:54:10.396Z,98702.50
2023-05-07T01:59:43.803Z,98688.50
2023-05-07T02:05:09.857Z,98708.72
2023-05-07T02:10:35.829Z,98698.38
2023-05-07T02:16:03.873Z,98693.53
2023-05-07T02:21:31.113Z,98697.22
2023-05-07T02:26:55.832Z,98689.84
2023-05-07T02:32:22.868Z,98690.53
2023-05-07T02:37:47.871Z,98689.38
2023-05-07T02:43:13.880Z,98689.53
2023-05-07T02:48:43.893Z,98692.22
2023-05-07T02:54:08.891Z,98693.94
2023-05-07T02:59:33.867Z,98683.28
2023-05-07T03:05:00.889Z,98690.53
2023-05-07T03:10:25.900Z,98691.53
2023-05-07T03:15:49.922Z,98691.97
2023-05-07T03:21:17.861Z,98701.34
2023-05-07T03:26:41.862Z,98714.16
2023-05-07T03:32:06.907Z,98704.25
2023-05-07T03:37:33.906Z,98708.00
2023-05-07T03:42:58.877Z,98717.94
2023-05-07T03:48:25.920Z,98736.78
2023-05-07T03:53:53.894Z,98746.28
2023-05-07T03:59:20.869Z,98753.69
2023-05-07T04:04:45.884Z,98763.28
2023-05-07T04:10:13.937Z,98788.75
2023-05-07T04:15:40.928Z,98778.31
2023-05-07T04:21:07.925Z,98789.59
2023-05-07T04:26:35.898Z,98797.53
2023-05-07T04:32:04.009Z,98802.31
2023-05-07T04:37:30.893Z,98808.72
2023-05-07T04:42:58.934Z,98808.84
2023-05-07T04:48:29.972Z,98811.97
2023-05-07T04:53:56.905Z,98805.88
2023-05-07T04:59:31.961Z,98817.91
2023-05-07T05:04:56.912Z,98818.72
2023-05-07T05:10:24.710Z,98819.31
2023-05-07T05:15:53.001Z,98824.97
2023-05-07T05:21:18.940Z,98826.09
2023-05-07T05:26:49.014Z,98832.03
2023-05-07T05:32:15.973Z,98815.63
2023-05-07T05:37:42.943Z,98803.03
2023-05-07T05:43:08.993Z,98794.78
2023-05-07T05:48:37.969Z,98786.13
2023-05-07T05:54:02.994Z,98789.78
2023-05-07T05:59:28.038Z,98791.06
2023-05-07T06:04:55.056Z,98793.31
2023-05-07T06:10:20.928Z,98788.38
2023-05-07T06:15:45.959Z,98790.59
2023-05-07T06:21:13.974Z,98783.66
2023-05-07T06:26:38.949Z,98780.09
2023-05-07T06:32:05.094Z,98778.28
2023-05-07T06:37:33.973Z,98791.88
2023-05-07T06:43:01.006Z,98803.94
2023-05-07T06:48:34.070Z,98797.56
2023-05-07T06:54:01.982Z,98803.94
2023-05-07T06:59:29.995Z,98802.63
2023-05-07T07:04:50.289Z,98805.47
2023-05-07T07:10:19.012Z,98813.38
2023-05-07T07:15:45.053Z,98818.47
2023-05-07T07:21:10.028Z,98814.34
2023-05-07T07:26:41.046Z,98811.50
2023-05-07T07:32:07.004Z,98815.84
2023-05-07T07:37:33.007Z,98808.88
2023-05-07T07:43:00.995Z,98813.34
2023-05-07T07:48:26.967Z,98816.16
2023-05-07T07:53:52.273Z,98819.84
2023-05-07T07:59:19.013Z,98824.63
2023-05-07T08:04:45.099Z,98817.94
2023-05-07T08:10:10.250Z,98819.16
2023-05-07T08:15:38.037Z,98832.56
2023-05-07T08:21:04.037Z,98827.97
2023-05-07T08:26:28.996Z,98819.81
2023-05-07T08:31:57.067Z,98813.25
2023-05-07T08:37:22.037Z,98814.03
2023-05-07T08:42:49.044Z,98818.19
2023-05-07T08:48:25.049Z,98814.50
2023-05-07T08:53:59.052Z,98824.91
2023-05-07T08:59:25.029Z,98842.38
2023-05-07T09:04:54.069Z,98838.50
2023-05-07T09:10:20.048Z,98842.97
2023-05-07T09:15:45.205Z,98839.91
2023-05-07T09:21:14.031Z,98829.47
2023-05-07T09:26:42.077Z,98832.13
2023-05-07T09:32:07.194Z,98833.69
2023-05-07T09:37:44.054Z,98838.34
2023-05-07T09:43:20.086Z,98840.34
2023-05-07T09:48:54.100Z,98834.03
2023-05-07T09:54:22.175Z,98843.53
2023-05-07T09:59:49.117Z,98843.59
2023-05-07T10:05:22.104Z,98843.75
2023-05-07T10:10:52.066Z,98849.75
2023-05-07T10:16:20.084Z,98847.97
2023-05-07T10:21:48.103Z,98842.56
2023-05-07T10:27:19.138Z,98841.78
2023-05-07T10:32:51.128Z,98848.28
2023-05-07T10:38:22.090Z,98846.09
2023-05-07T10:43:55.133Z,98843.41
2023-05-07T10:49:26.113Z,98851.50
2023-05-07T10:54:56.107Z,98850.63
2023-05-07T11:00:59.117Z,98845.25
2023-05-07T11:06:31.136Z,98841.25
2023-05-07T11:12:06.184Z,98840.00
2023-05-07T11:17:42.199Z,98840.00
2023-05-07T11:23:06.104Z,98835.72
2023-05-07T11:28:39.105Z,98817.22
2023-05-07T11:34:07.123Z,98823.34
2023-05-07T11:39:40.110Z,98825.09
2023-05-07T11:45:04.103Z,98828.31
2023-05-07T11:50:32.147Z,98825.81
2023-05-07T11:55:57.152Z,98819.03
2023-05-07T12:01:24.158Z,98825.84
2023-05-07T12:06:53.134Z,98815.28
2023-05-07T12:12:19.155Z,98817.41
2023-05-07T12:17:43.221Z,98796.13
2023-05-07T12:23:12.208Z,98800.25
2023-05-07T12:28:36.154Z,98818.31
2023-05-07T12:34:01.235Z,98825.94
2023-05-07T12:39:28.162Z,98817.94
2023-05-07T12:44:56.160Z,98818.31
2023-05-07T12:50:23.212Z,98820.84
2023-05-07T12:55:57.219Z,98825.72
2023-05-07T13:01:27.208Z,98829.78
2023-05-07T13:06:52.153Z,98823.84
2023-05-07T13:12:20.320Z,98818.56
2023-05-07T13:17:45.491Z,98828.00
2023-05-07T13:23:12.210Z,98826.75
2023-05-07T13:28:40.205Z,98819.59
2023-05-07T13:34:05.200Z,98815.09
2023-05-07T13:39:30.416Z,98811.97
2023-05-07T13:44:57.273Z,98806.38
2023-05-07T13:50:24.236Z,98802.53
2023-05-07T13:55:49.207Z,98803.41
2023-05-07T14:01:17.256Z,98806.00
2023-05-07T14:06:42.223Z,98796.59
2023-05-07T14:12:07.192Z,98790.59
2023-05-07T14:17:35.244Z,98790.03
2023-05-07T14:23:00.242Z,98776.09
2023-05-07T14:28:24.252Z,98769.16
2023-05-07T14:33:52.240Z,98777.69
2023-05-07T14:39:16.246Z,98785.88
2023-05-07T14:44:42.236Z,98790.63
2023-05-07T14:50:09.224Z,98786.94
2023-05-07T14:55:35.443Z,98796.13
2023-05-07T15:00:59.890Z,98807.66
2023-05-07T15:06:30.627Z,98801.88
2023-05-07T15:11:55.277Z,98817.06
2023-05-07T15:17:20.294Z,98795.69
2023-05-07T15:22:49.541Z,98779.75
2023-05-07T15:28:14.300Z,98783.97
2023-05-07T15:33:38.270Z,98763.31
2023-05-07T15:39:06.255Z,98762.94
2023-05-07T15:44:35.955Z,98760.16
2023-05-07T15:50:01.245Z,98763.38
2023-05-07T15:55:28.289Z,98770.06
2023-05-07T16:00:53.369Z,98774.22
2023-05-07T16:06:25.287Z,98775.06
2023-05-07T16:11:53.299Z,98768.84
2023-05-07T16:17:17.453Z,98779.09
2023-05-07T16:22:43.277Z,98769.69
2023-05-07T16:28:11.279Z,98777.91
2023-05-07T16:33:36.305Z,98780.38
2023-05-07T16:39:00.317Z,98783.00
2023-05-07T16:44:28.619Z,98789.22
2023-05-07T16:49:52.345Z,98799.66
2023-05-07T16:55:18.297Z,98794.91
2023-05-07T17:06:21.333Z,98788.69
2023-05-07T17:11:46.337Z,98788.56
2023-05-07T17:17:13.368Z,98795.53
2023-05-07T17:22:41.244Z,98805.16
2023-05-07T17:28:06.361Z,98815.34
2023-05-07T17:33:34.403Z,98815.69
2023-05-07T17:38:58.340Z,98817.47
2023-05-07T17:44:23.361Z,98822.63
2023-05-07T17:49:50.387Z,98831.19
2023-05-07T17:55:16.369Z,98825.50
2023-05-07T18:00:40.362Z,98833.78
2023-05-07T18:06:14.351Z,98831.19
2023-05-07T18:11:40.336Z,98849.56
2023-05-07T18:17:04.443Z,98860.78
2023-05-07T18:22:32.360Z,98863.47
2023-05-07T18:27:56.373Z,98859.28
2023-05-07T18:33:23.399Z,98856.59
2023-05-07T18:38:51.386Z,98848.06
2023-05-07T18:44:16.418Z,98871.06
2023-05-07T18:49:40.455Z,98876.19
2023-05-07T18:55:08.395Z,98883.09
2023-05-07T19:00:33.399Z,98883.47
2023-05-07T19:06:05.415Z,98888.81
2023-05-07T19:11:33.388Z,98897.69
2023-05-07T19:16:57.396Z,98903.28
2023-05-07T19:22:22.411Z,98910.28
2023-05-07T19:27:49.388Z,98917.44
2023-05-07T19:33:14.410Z,98919.59
2023-05-07T19:38:38.425Z,98925.56
2023-05-07T19:44:06.447Z,98927.97
2023-05-07T19:49:30.566Z,98935.78
2023-05-07T19:54:55.637Z,98943.81
2023-05-07T20:00:24.631Z,98935.16
2023-05-07T20:05:55.419Z,98955.66
2023-05-07T20:11:20.431Z,98958.06
2023-05-07T20:16:55.477Z,98955.22
2023-05-07T20:22:20.409Z,98948.25
2023-05-07T20:27:46.628Z,98956.97
2023-05-07T20:33:14.413Z,98971.22
2023-05-07T20:38:40.440Z,98965.84
2023-05-07T20:44:11.454Z,98970.97
2023-05-07T20:49:39.438Z,98968.13
2023-05-07T20:55:03.430Z,98975.69
2023-05-07T21:00:28.424Z,98974.63
2023-05-07T21:05:55.429Z,98988.84
2023-05-07T21:11:20.546Z,98988.63
2023-05-07T21:16:44.482Z,98991.38
2023-05-07T21:22:12.437Z,98996.53
2023-05-07T21:27:36.453Z,98990.00
2023-05-07T21:33:02.477Z,98996.72
2023-05-07T21:38:29.480Z,98997.50
2023-05-07T21:43:54.502Z,98996.16
2023-05-07T21:49:18.491Z,99009.50
2023-05-07T21:54:46.614Z,99012.56
2023-05-07T22:00:11.956Z,99004.03
2023-05-07T22:05:43.580Z,99018.66
2023-05-07T22:11:11.520Z,99017.34
2023-05-07T22:16:36.591Z,99007.09
2023-05-07T22:22:01.534Z,99017.97
2023-05-07T22:27:28.516Z,99016.50
2023-05-07T22:32:54.538Z,99018.44
2023-05-07T22:38:18.493Z,99025.75
2023-05-07T22:43:46.515Z,99015.31
2023-05-07T22:49:11.513Z,99028.19
2023-05-07T22:54:36.671Z,99024.06
2023-05-07T23:00:03.572Z,99020.16
2023-05-07T23:05:34.529Z,99018.59
2023-05-07T23:10:59.528Z,99015.31
2023-05-07T23:16:26.570Z,99020.19
2023-05-07T23:21:51.522Z,99023.34
2023-05-07T23:27:19.624Z,99028.94
2023-05-07T23:32:47.559Z,99021.16
2023-05-07T23:38:13.002Z,99024.31
2023-05-07T23:43:37.517Z,99029.91
2023-05-07T23:49:04.527Z,99025.66
2023-05-07T23:54:30.557Z,99025.97
2023-05-07T23:59:54.767Z,99020.91
